createdAt,value
2023-05-06T00:00:52.311Z,5.77
2023-05-06T00:03:38.627Z,7.37
2023-05-06T00:06:25.020Z,5.33
2023-05-06T00:09:11.505Z,7.00
2023-05-06T00:11:57.861Z,6.37
2023-05-06T00:14:44.472Z,6.63
2023-05-06T00:17:30.892Z,5.70
2023-05-06T00:20:17.430Z,12.63
2023-05-06T00:23:04.103Z,5.93
2023-05-06T00:25:50.669Z,7.47
2023-05-06T00:28:36.870Z,7.03
2023-05-06T00:31:23.164Z,7.40
2023-05-06T00:34:09.416Z,8.97
2023-05-06T00:36:55.807Z,10.60
2023-05-06T00:39:42.119Z,7.77
2023-05-06T00:42:28.393Z,8.70
2023-05-06T00:45:15.152Z,12.97
2023-05-06T00:48:02.717Z,9.20
2023-05-06T00:50:49.351Z,8.60
2023-05-06T00:53:36.307Z,8.33
2023-05-06T00:56:23.521Z,10.57
2023-05-06T00:59:09.738Z,9.63
2023-05-06T01:01:56.030Z,9.53
2023-05-06T01:04:42.571Z,8.43
2023-05-06T01:07:41.587Z,8.50
2023-05-06T01:10:44.859Z,9.13
2023-05-06T01:13:45.459Z,7.50
2023-05-06T01:16:34.814Z,8.23
2023-05-06T01:19:51.240Z,6.93
2023-05-06T01:22:38.628Z,9.70
2023-05-06T01:25:25.154Z,7.93
2023-05-06T01:28:12.912Z,9.37
2023-05-06T01:31:09.178Z,9.10
2023-05-06T01:34:23.766Z,8.47
2023-05-06T01:37:17.939Z,7.60
2023-05-06T01:40:07.663Z,9.87
2023-05-06T01:42:55.537Z,8.63
2023-05-06T01:45:43.394Z,6.93
2023-05-06T01:48:33.763Z,9.60
2023-05-06T01:51:21.943Z,7.93
2023-05-06T01:54:08.574Z,8.73
2023-05-06T01:56:54.966Z,9.00
2023-05-06T01:59:41.370Z,8.60
2023-05-06T02:02:27.744Z,10.23
2023-05-06T02:05:14.100Z,8.20
2023-05-06T02:08:05.367Z,8.07
2023-05-06T02:10:52.086Z,10.10
2023-05-06T02:13:39.552Z,11.70
2023-05-06T02:16:28.469Z,10.17
2023-05-06T02:19:14.951Z,9.73
2023-05-06T02:22:02.623Z,10.47
2023-05-06T02:24:48.835Z,11.73
2023-05-06T02:27:35.459Z,8.73
2023-05-06T02:30:21.750Z,11.23
2023-05-06T02:33:08.075Z,9.77
2023-05-06T02:35:54.324Z,11.17
2023-05-06T02:38:40.815Z,13.67
2023-05-06T02:41:27.055Z,12.70
2023-05-06T02:44:13.206Z,12.03
2023-05-06T02:46:59.568Z,10.17
2023-05-06T02:49:45.903Z,11.93
2023-05-06T02:52:33.339Z,16.83
2023-05-06T02:55:19.652Z,12.90
2023-05-06T02:58:06.075Z,16.00
2023-05-06T03:00:52.329Z,12.30
2023-05-06T03:03:38.461Z,15.13
2023-05-06T03:06:24.736Z,16.13
2023-05-06T03:09:10.957Z,13.90
2023-05-06T03:11:57.507Z,14.87
2023-05-06T03:14:44.212Z,12.50
2023-05-06T03:17:30.924Z,17.87
2023-05-06T03:20:17.352Z,13.67
2023-05-06T03:23:10.032Z,18.20
2023-05-06T03:25:56.181Z,17.87
2023-05-06T03:28:44.322Z,12.97
2023-05-06T03:31:32.529Z,17.83
2023-05-06T03:34:20.996Z,16.63
2023-05-06T03:37:07.619Z,15.97
2023-05-06T03:39:54.952Z,15.47
2023-05-06T03:42:45.993Z,17.57
2023-05-06T03:45:32.777Z,16.43
2023-05-06T03:48:21.655Z,26.33
2023-05-06T03:51:09.127Z,17.00
2023-05-06T03:53:56.443Z,23.10
2023-05-06T03:56:43.519Z,18.03
2023-05-06T03:59:29.971Z,16.37
2023-05-06T04:02:17.875Z,12.50
2023-05-06T04:05:04.733Z,18.40
2023-05-06T04:07:51.617Z,14.03
2023-05-06T04:10:41.346Z,13.70
2023-05-06T04:13:35.353Z,13.67
2023-05-06T04:16:26.508Z,13.90
2023-05-06T04:19:14.282Z,16.10
2023-05-06T04:22:02.333Z,14.33
2023-05-06T04:24:49.162Z,18.13
2023-05-06T04:27:36.883Z,19.07
2023-05-06T04:30:25.934Z,18.73
2023-05-06T04:33:14.657Z,41.13
2023-05-06T04:36:01.571Z,16.47
2023-05-06T04:38:49.794Z,26.87
2023-05-06T04:41:36.507Z,24.87
2023-05-06T04:44:23.658Z,21.53
2023-05-06T04:47:11.188Z,20.37
2023-05-06T04:49:59.238Z,16.40
2023-05-06T04:52:46.674Z,30.03
2023-05-06T04:55:35.287Z,25.60
2023-05-06T04:58:22.267Z,40.00
2023-05-06T05:01:10.260Z,31.60
2023-05-06T05:03:57.112Z,18.37
2023-05-06T05:06:44.162Z,16.83
2023-05-06T05:09:31.255Z,10.67
2023-05-06T05:12:18.291Z,12.70
2023-05-06T05:15:10.124Z,7.37
2023-05-06T05:17:57.253Z,6.50
2023-05-06T05:20:44.485Z,15.00
2023-05-06T05:23:33.400Z,11.40
2023-05-06T05:26:20.128Z,5.63
2023-05-06T05:29:07.982Z,4.63
2023-05-06T05:31:55.511Z,6.87
2023-05-06T05:34:42.710Z,6.00
2023-05-06T05:37:29.057Z,6.00
2023-05-06T05:40:16.342Z,5.10
2023-05-06T05:43:03.840Z,10.47
2023-05-06T05:45:55.290Z,5.80
2023-05-06T05:48:41.950Z,5.13
2023-05-06T05:51:29.451Z,7.60
2023-05-06T05:54:17.186Z,5.90
2023-05-06T05:57:04.069Z,5.27
2023-05-06T05:59:51.255Z,8.67
2023-05-06T06:02:37.926Z,15.03
2023-05-06T06:05:24.674Z,9.40
2023-05-06T06:08:11.058Z,6.70
2023-05-06T06:10:58.405Z,11.57
2023-05-06T06:13:51.172Z,8.37
2023-05-06T06:16:37.559Z,7.87
2023-05-06T06:19:24.142Z,6.03
2023-05-06T06:22:11.292Z,7.60
2023-05-06T06:24:58.062Z,5.67
2023-05-06T06:27:44.588Z,8.73
2023-05-06T06:30:32.112Z,7.97
2023-05-06T06:33:18.487Z,6.00
2023-05-06T06:36:04.781Z,5.90
2023-05-06T06:38:51.449Z,5.80
2023-05-06T06:41:37.715Z,15.60
2023-05-06T06:44:24.109Z,7.70
2023-05-06T06:47:10.406Z,5.87
2023-05-06T06:49:56.625Z,6.07
2023-05-06T06:52:43.100Z,6.03
2023-05-06T06:55:29.701Z,5.80
2023-05-06T06:58:15.856Z,5.13
2023-05-06T07:01:02.791Z,6.20
2023-05-06T07:03:49.386Z,5.13
2023-05-06T07:06:36.333Z,4.27
2023-05-06T07:09:22.556Z,5.27
2023-05-06T07:12:09.155Z,4.97
2023-05-06T07:14:55.630Z,4.23
2023-05-06T07:17:41.915Z,5.80
2023-05-06T07:20:28.434Z,5.30
2023-05-06T07:23:14.553Z,4.67
2023-05-06T07:26:00.679Z,4.40
2023-05-06T07:28:46.876Z,4.80
2023-05-06T07:31:33.754Z,3.30
2023-05-06T07:34:20.351Z,3.37
2023-05-06T07:37:08.196Z,4.43
2023-05-06T07:39:54.347Z,3.80
2023-05-06T07:42:42.994Z,3.47
2023-05-06T07:45:30.189Z,4.00
2023-05-06T07:48:18.642Z,2.57
2023-05-06T07:51:06.442Z,3.43
2023-05-06T07:53:52.671Z,3.90
2023-05-06T07:56:39.366Z,3.50
2023-05-06T07:59:25.560Z,2.40
2023-05-06T08:02:11.901Z,3.00
2023-05-06T08:04:58.420Z,2.63
2023-05-06T08:07:44.795Z,2.00
2023-05-06T08:10:31.172Z,2.90
2023-05-06T08:13:17.416Z,2.33
2023-05-06T08:16:04.592Z,2.60
2023-05-06T08:18:51.163Z,1.53
2023-05-06T08:21:37.637Z,1.17
2023-05-06T08:24:24.286Z,2.23
2023-05-06T08:27:10.848Z,1.47
2023-05-06T08:29:57.345Z,3.50
2023-05-06T08:32:43.464Z,2.20
2023-05-06T08:35:29.876Z,2.00
2023-05-06T08:38:16.233Z,1.43
2023-05-06T08:41:09.350Z,2.37
2023-05-06T08:43:57.181Z,2.20
2023-05-06T08:46:43.997Z,2.30
2023-05-06T08:49:30.472Z,2.13
2023-05-06T08:52:17.820Z,2.27
2023-05-06T08:55:05.280Z,2.83
2023-05-06T08:57:53.339Z,2.83
2023-05-06T09:00:40.254Z,1.70
2023-05-06T09:03:26.845Z,2.63
2023-05-06T09:06:13.371Z,5.47
2023-05-06T09:09:00.413Z,1.70
2023-05-06T09:11:53.440Z,1.77
2023-05-06T09:14:40.097Z,2.50
2023-05-06T09:17:28.438Z,1.90
2023-05-06T09:20:14.889Z,3.77
2023-05-06T09:23:01.728Z,2.17
2023-05-06T09:25:49.705Z,4.83
2023-05-06T09:28:36.250Z,1.70
2023-05-06T09:31:22.676Z,1.40
2023-05-06T09:34:09.159Z,1.50
2023-05-06T09:36:57.538Z,1.87
2023-05-06T09:39:43.902Z,1.30
2023-05-06T09:42:30.924Z,2.83
2023-05-06T09:45:17.797Z,1.40
2023-05-06T09:48:04.408Z,2.87
2023-05-06T09:50:51.553Z,1.43
2023-05-06T09:53:38.225Z,1.10
2023-05-06T09:56:25.706Z,2.10
2023-05-06T09:59:12.992Z,1.33
2023-05-06T10:02:00.054Z,1.37
2023-05-06T10:04:49.133Z,2.33
2023-05-06T10:07:36.363Z,1.20
2023-05-06T10:10:25.482Z,1.27
2023-05-06T10:13:12.779Z,0.67
2023-05-06T10:16:01.609Z,1.00
2023-05-06T10:18:49.817Z,1.10
2023-05-06T10:21:40.492Z,1.10
2023-05-06T10:24:34.225Z,1.17
2023-05-06T10:27:24.753Z,1.03
2023-05-06T10:30:14.072Z,1.53
2023-05-06T10:33:04.930Z,1.17
2023-05-06T10:36:09.988Z,2.80
2023-05-06T10:39:00.349Z,1.57
2023-05-06T10:41:47.868Z,1.07
2023-05-06T10:45:05.930Z,1.30
2023-05-06T10:47:58.401Z,3.17
2023-05-06T10:50:46.686Z,1.50
2023-05-06T10:53:59.569Z,1.07
2023-05-06T10:56:48.768Z,1.37
2023-05-06T10:59:35.069Z,1.23
2023-05-06T11:02:21.806Z,1.10
2023-05-06T11:05:09.568Z,1.73
2023-05-06T11:08:12.415Z,1.90
2023-05-06T11:10:58.820Z,1.47
2023-05-06T11:13:45.259Z,1.17
2023-05-06T11:16:51.313Z,3.90
2023-05-06T11:19:38.814Z,1.27
2023-05-06T11:22:40.250Z,1.73
2023-05-06T11:25:53.577Z,3.17
2023-05-06T11:28:43.615Z,1.57
2023-05-06T11:31:30.976Z,1.17
2023-05-06T11:34:31.129Z,1.43
2023-05-06T11:37:26.100Z,1.57
2023-05-06T11:40:15.935Z,1.10
2023-05-06T11:43:16.108Z,2.53
2023-05-06T11:46:02.962Z,1.20
2023-05-06T11:48:50.638Z,1.50
2023-05-06T11:51:36.868Z,1.23
2023-05-06T11:54:26.288Z,1.20
2023-05-06T11:57:13.416Z,1.30
2023-05-06T11:59:59.748Z,1.43
2023-05-06T12:02:46.294Z,1.47
2023-05-06T12:05:33.920Z,1.63
2023-05-06T12:08:28.272Z,1.20
2023-05-06T12:11:14.941Z,1.77
2023-05-06T12:14:07.308Z,1.77
2023-05-06T12:16:55.920Z,1.83
2023-05-06T12:19:42.632Z,0.90
2023-05-06T12:22:29.043Z,1.40
2023-05-06T12:25:15.981Z,1.03
2023-05-06T12:28:13.693Z,1.60
2023-05-06T12:31:01.157Z,1.23
2023-05-06T12:33:49.802Z,0.93
2023-05-06T12:36:40.844Z,1.20
2023-05-06T12:39:42.216Z,2.20
2023-05-06T12:42:28.722Z,1.57
2023-05-06T12:45:15.441Z,0.93
2023-05-06T12:48:02.970Z,6.93
2023-05-06T12:50:50.291Z,2.07
2023-05-06T12:53:36.865Z,1.10
2023-05-06T12:56:23.280Z,2.00
2023-05-06T12:59:09.460Z,2.57
2023-05-06T13:01:55.802Z,1.10
2023-05-06T13:04:42.666Z,0.90
2023-05-06T13:07:28.990Z,2.30
2023-05-06T13:10:15.905Z,2.50
2023-05-06T13:13:02.548Z,1.07
2023-05-06T13:15:49.266Z,2.30
2023-05-06T13:18:36.145Z,0.87
2023-05-06T13:21:22.350Z,1.40
2023-05-06T13:24:08.930Z,1.03
2023-05-06T13:26:56.943Z,0.90
2023-05-06T13:29:43.422Z,2.30
2023-05-06T13:32:29.753Z,1.93
2023-05-06T13:35:16.251Z,1.20
2023-05-06T13:38:02.434Z,1.23
2023-05-06T13:40:51.519Z,1.23
2023-05-06T13:43:38.056Z,3.20
2023-05-06T13:46:24.463Z,21.77
2023-05-06T13:49:11.185Z,2.63
2023-05-06T13:51:58.242Z,1.47
2023-05-06T13:54:45.068Z,1.40
2023-05-06T13:57:31.476Z,2.07
2023-05-06T14:00:17.787Z,1.40
2023-05-06T14:03:04.433Z,1.33
2023-05-06T14:05:51.280Z,1.67
2023-05-06T14:08:37.562Z,3.50
2023-05-06T14:11:24.103Z,2.23
2023-05-06T14:14:10.696Z,1.97
2023-05-06T14:16:57.325Z,1.13
2023-05-06T14:19:43.896Z,2.80
2023-05-06T14:22:30.476Z,2.60
2023-05-06T14:25:16.869Z,1.63
2023-05-06T14:28:03.396Z,2.00
2023-05-06T14:30:50.968Z,2.87
2023-05-06T14:33:38.485Z,1.07
2023-05-06T14:36:24.744Z,1.03
2023-05-06T14:39:11.358Z,1.30
2023-05-06T14:41:58.049Z,1.30
2023-05-06T14:44:48.457Z,2.50
2023-05-06T14:47:35.096Z,4.17
2023-05-06T14:50:21.648Z,1.10
2023-05-06T14:53:07.821Z,2.47
2023-05-06T14:55:54.109Z,1.30
2023-05-06T14:58:40.458Z,1.40
2023-05-06T15:01:26.734Z,1.30
2023-05-06T15:04:13.176Z,14.53
2023-05-06T15:06:59.752Z,0.97
2023-05-06T15:09:46.033Z,1.27
2023-05-06T15:12:32.219Z,1.13
2023-05-06T15:15:18.661Z,1.40
2023-05-06T15:18:05.135Z,2.07
2023-05-06T15:20:52.353Z,1.20
2023-05-06T15:23:38.902Z,3.47
2023-05-06T15:26:25.433Z,1.40
2023-05-06T15:29:12.335Z,2.73
2023-05-06T15:31:58.614Z,1.40
2023-05-06T15:34:45.377Z,1.60
2023-05-06T15:37:33.640Z,1.10
2023-05-06T15:40:21.502Z,1.00
2023-05-06T15:43:08.406Z,1.30
2023-05-06T15:45:54.707Z,0.90
2023-05-06T15:48:41.848Z,1.07
2023-05-06T15:51:28.318Z,1.40
2023-05-06T15:54:18.389Z,2.73
2023-05-06T15:57:06.695Z,1.30
2023-05-06T15:59:53.579Z,1.43
2023-05-06T16:02:39.878Z,2.30
2023-05-06T16:05:26.255Z,2.10
2023-05-06T16:08:12.583Z,1.30
2023-05-06T16:10:59.446Z,13.20
2023-05-06T16:13:46.511Z,1.00
2023-05-06T16:16:32.811Z,2.60
2023-05-06T16:19:19.441Z,2.50
2023-05-06T16:22:06.012Z,1.50
2023-05-06T16:24:52.083Z,4.43
2023-05-06T16:27:38.475Z,1.90
2023-05-06T16:30:24.998Z,0.90
2023-05-06T16:33:12.466Z,1.83
2023-05-06T16:35:58.730Z,1.23
2023-05-06T16:38:45.085Z,1.00
2023-05-06T16:41:31.950Z,2.10
2023-05-06T16:44:18.390Z,1.40
2023-05-06T16:47:04.936Z,1.07
2023-05-06T16:49:52.005Z,1.20
2023-05-06T16:52:38.692Z,2.40
2023-05-06T16:55:25.253Z,1.83
2023-05-06T16:58:12.271Z,2.00
2023-05-06T17:00:59.256Z,1.93
2023-05-06T17:03:46.581Z,2.87
2023-05-06T17:06:33.918Z,1.13
2023-05-06T17:09:22.023Z,0.70
2023-05-06T17:12:08.858Z,2.43
2023-05-06T17:14:55.327Z,1.23
2023-05-06T17:17:41.782Z,1.30
2023-05-06T17:20:28.293Z,1.30
2023-05-06T17:23:14.922Z,0.77
2023-05-06T17:26:01.357Z,0.97
2023-05-06T17:28:48.242Z,2.30
2023-05-06T17:31:34.818Z,0.70
2023-05-06T17:37:08.350Z,0.90
2023-05-06T17:39:55.130Z,1.23
2023-05-06T17:42:41.348Z,1.57
2023-05-06T17:45:28.451Z,0.90
2023-05-06T17:48:15.427Z,1.20
2023-05-06T17:51:03.266Z,1.10
2023-05-06T17:53:49.835Z,2.40
2023-05-06T17:56:36.417Z,1.30
2023-05-06T17:59:24.821Z,2.60
2023-05-06T18:02:15.725Z,1.30
2023-05-06T18:05:02.087Z,1.00
2023-05-06T18:07:48.507Z,2.17
2023-05-06T18:10:35.269Z,1.07
2023-05-06T18:13:23.471Z,2.20
2023-05-06T18:16:09.806Z,3.33
2023-05-06T18:18:56.440Z,3.00
2023-05-06T18:21:42.713Z,2.17
2023-05-06T18:24:29.179Z,1.40
2023-05-06T18:27:15.584Z,1.23
2023-05-06T18:30:01.706Z,2.77
2023-05-06T18:32:50.672Z,2.70
2023-05-06T18:35:37.973Z,2.00
2023-05-06T18:38:26.383Z,1.63
2023-05-06T18:41:12.964Z,2.87
2023-05-06T18:43:59.164Z,2.57
2023-05-06T18:46:45.444Z,2.23
2023-05-06T18:49:31.843Z,2.53
2023-05-06T18:52:18.308Z,3.00
2023-05-06T18:55:05.723Z,2.50
2023-05-06T18:57:52.064Z,1.70
2023-05-06T19:00:38.264Z,3.73
2023-05-06T19:03:24.560Z,2.40
2023-05-06T19:06:11.677Z,1.40
2023-05-06T19:08:58.694Z,2.30
2023-05-06T19:11:44.960Z,2.63
2023-05-06T19:14:32.465Z,2.47
2023-05-06T19:17:18.947Z,2.90
2023-05-06T19:20:05.821Z,2.17
2023-05-06T19:22:52.071Z,1.80
2023-05-06T19:25:39.311Z,2.90
2023-05-06T19:28:25.747Z,3.43
2023-05-06T19:31:12.312Z,2.60
2023-05-06T19:33:58.653Z,3.53
2023-05-06T19:36:45.496Z,2.00
2023-05-06T19:39:31.982Z,3.80
2023-05-06T19:42:18.354Z,3.07
2023-05-06T19:45:09.278Z,3.40
2023-05-06T19:47:55.849Z,4.10
2023-05-06T19:50:42.445Z,5.27
2023-05-06T19:53:28.990Z,5.63
2023-05-06T19:56:17.051Z,4.50
2023-05-06T19:59:03.335Z,6.13
2023-05-06T20:01:50.120Z,6.97
2023-05-06T20:04:36.372Z,8.10
2023-05-06T20:07:23.268Z,5.20
2023-05-06T20:10:10.263Z,7.27
2023-05-06T20:12:57.797Z,5.23
2023-05-06T20:15:44.687Z,6.30
2023-05-06T20:18:32.073Z,4.63
2023-05-06T20:21:18.226Z,6.07
2023-05-06T20:24:04.805Z,3.00
2023-05-06T20:26:51.260Z,3.47
2023-05-06T20:29:37.430Z,6.83
2023-05-06T20:32:23.888Z,6.23
2023-05-06T20:35:10.374Z,3.80
2023-05-06T20:37:56.694Z,6.03
2023-05-06T20:40:43.203Z,4.77
2023-05-06T20:43:30.375Z,5.47
2023-05-06T20:46:18.425Z,5.60
2023-05-06T20:49:06.535Z,3.93
2023-05-06T20:51:52.912Z,4.87
2023-05-06T20:54:39.090Z,4.33
2023-05-06T20:57:25.479Z,3.50
2023-05-06T21:00:12.374Z,4.30
2023-05-06T21:02:59.068Z,5.53
2023-05-06T21:05:45.558Z,4.70
2023-05-06T21:08:31.774Z,5.07
2023-05-06T21:11:18.251Z,4.17
2023-05-06T21:14:04.913Z,4.90
2023-05-06T21:16:52.227Z,3.20
2023-05-06T21:19:38.562Z,7.60
2023-05-06T21:22:25.684Z,6.37
2023-05-06T21:25:13.323Z,4.30
2023-05-06T21:28:03.238Z,4.37
2023-05-06T21:30:49.463Z,4.63
2023-05-06T21:33:35.709Z,6.40
2023-05-06T21:36:22.059Z,5.93
2023-05-06T21:39:12.302Z,4.27
2023-05-06T21:41:58.610Z,5.17
2023-05-06T21:44:45.192Z,4.80
2023-05-06T21:47:31.353Z,4.07
2023-05-06T21:50:17.935Z,4.90
2023-05-06T21:53:04.842Z,5.47
2023-05-06T21:55:51.229Z,4.30
2023-05-06T21:58:37.535Z,3.53
2023-05-06T22:01:26.274Z,3.30
2023-05-06T22:04:13.126Z,4.83
2023-05-06T22:07:00.015Z,4.00
2023-05-06T22:09:46.312Z,5.20
2023-05-06T22:12:32.709Z,4.10
2023-05-06T22:15:18.926Z,4.77
2023-05-06T22:18:05.386Z,4.47
2023-05-06T22:20:52.465Z,3.83
2023-05-06T22:23:40.463Z,4.43
2023-05-06T22:26:29.943Z,4.00
2023-05-06T22:29:16.548Z,4.23
2023-05-06T22:32:03.370Z,4.93
2023-05-06T22:34:49.988Z,4.90
2023-05-06T22:37:36.325Z,3.60
2023-05-06T22:40:22.925Z,4.53
2023-05-06T22:43:09.158Z,3.23
2023-05-06T22:45:56.024Z,4.60
2023-05-06T22:48:44.581Z,4.87
2023-05-06T22:51:32.101Z,4.10
2023-05-06T22:54:18.360Z,5.20
2023-05-06T22:57:04.645Z,4.43
2023-05-06T22:59:51.611Z,4.20
2023-05-06T23:02:38.016Z,6.63
2023-05-06T23:05:24.535Z,7.33
2023-05-06T23:08:11.065Z,4.67
2023-05-06T23:10:57.495Z,3.33
2023-05-06T23:13:44.028Z,5.57
2023-05-06T23:16:30.635Z,4.57
2023-05-06T23:19:17.475Z,5.23
2023-05-06T23:22:04.489Z,3.60
2023-05-06T23:24:51.309Z,3.27
2023-05-06T23:27:39.134Z,3.80
2023-05-06T23:30:25.432Z,3.07
2023-05-06T23:33:11.644Z,4.90
2023-05-06T23:36:01.629Z,4.13
2023-05-06T23:38:48.032Z,3.57
2023-05-06T23:41:34.040Z,4.50
2023-05-06T23:44:20.523Z,3.97
2023-05-06T23:47:07.028Z,4.37
2023-05-06T23:49:53.445Z,3.47
2023-05-06T23:52:39.971Z,3.00
2023-05-06T23:55:26.775Z,6.87
2023-05-06T23:58:13.040Z,4.37
